METAR Data

Data at: 1245 UTC 24 Jan 2021

KSJC 241153Z AUTO 13003KT 10SM CLR 03/01 A2996 RMK AO2 SLP145 T00280011 10072 20028 50001

KSJC 241140Z 2412/2512 VRB03KT P6SM BKN020
  FM241700 17007KT P6SM SCT025 BKN100
  FM242000 24007KT P6SM VCSH BKN025 OVC050
  FM242230 25008KT 4SM RA BR OVC025
  FM250500 25012G20KT P6SM VCSH OVC025
  FM250800 27014G25KT P6SM SCT025 SCT100